• Join FlightAware (Why Join?)
  • Login
  • US Flag 
10:24AM EDT


 

Airport Tracker/Info


-or-


 

Live Flight TrackerFlight Track Log ✈ CTL15 ✈ 25-Apr-2013 ✈ KMGY - KBKL

Flight Track Log - Related Links

Times and Time Zones

All times are in EDT time to prevent confusion due to time zone crossing. See the CTL15 flight status page for this flight to view local times or setup timezone preferences in your user account.

Time Position Orientation Groundspeed Altitude Reporting Facility
EDT Latitude Longitude Course Direction KTS MPH feet Rate Location/Type
07:37PM 39.6197 -84.1936 45° Northeast 128 147 2,100  Level Indianapolis Center
07:38PM 39.6383 -84.1692 45° Northeast 142 163 2,800 600 Climbing Indianapolis Center
07:39PM 39.6756 -84.1225 44° Northeast 170 196 3,200 780 Climbing Indianapolis Center
07:40PM 39.7061 -84.0833 45° Northeast 164 189 4,500 1,140 Climbing Indianapolis Center
07:41PM 39.7322 -84.0497 45° Northeast 125 144 5,600 960 Climbing Indianapolis Center
07:42PM 39.7617 -84.0117 45° Northeast 137 158 6,500 720 Climbing Indianapolis Center
07:43PM 39.7911 -83.9697 48° Northeast 148 170 7,100 300 Climbing Indianapolis Center
07:44PM 39.8294 -83.9197 45° Northeast 197 227 7,200 -60 Climbing Indianapolis Center
07:45PM 39.8694 -83.8664 46° Northeast 193 222 7,000 -60 Descending Indianapolis Center
07:46PM 39.9019 -83.8203 47° Northeast 201 231 7,100  Climbing Indianapolis Center
07:47PM 39.9414 -83.7708 44° Northeast 198 228 7,000 -120 Descending Indianapolis Center
07:47PM 39.9483 -83.7631 41° Northeast 198 228 7,000 180 Level Indianapolis Center
07:48PM 39.9806 -83.7214 45° Northeast 196 226 7,200 180 Climbing Indianapolis Center
07:48PM 39.9875 -83.7122 45° Northeast 197 227 7,200  Level Indianapolis Center
07:49PM 40.0272 -83.6611 45° Northeast 197 227 7,200 -120 Level Indianapolis Center
07:50PM 40.0572 -83.6194 47° Northeast 198 228 7,000 -120 Descending Indianapolis Center
07:50PM 40.0661 -83.6092 42° Northeast 197 227 7,100 -120 Climbing Indianapolis Center
07:51PM 40.0964 -83.5697 45° Northeast 197 227 6,900  Descending Indianapolis Center
07:51PM 40.1056 -83.5581 44° Northeast 197 227 7,100 60 Climbing Indianapolis Center
07:52PM 40.1381 -83.5175 44° Northeast 193 222 7,000 -120 Descending Indianapolis Center
07:52PM 40.1511 -83.5000 46° Northeast 195 224 7,000  Level Indianapolis Center
07:53PM 40.1703 -83.4750 45° Northeast 194 223 7,000  Level Indianapolis Center
07:53PM 40.1897 -83.4492 45° Northeast 194 223 7,000  Level Indianapolis Center
07:54PM 40.2053 -83.4275 47° Northeast 194 223 7,000 60 Level Indianapolis Center
07:54PM 40.2281 -83.3989 44° Northeast 194 223 7,100 60 Climbing Indianapolis Center
07:55PM 40.2492 -83.3700 46° Northeast 194 223 7,100  Level Indianapolis Center
07:55PM 40.2656 -83.3458 48° Northeast 194 223 7,100 -120 Level Indianapolis Center
07:56PM 40.2864 -83.3172 46° Northeast 194 223 7,000 -120 Descending Indianapolis Center
07:56PM 40.3031 -83.2956 45° Northeast 194 223 7,000 60 Level Indianapolis Center
07:57PM 40.3253 -83.2697 42° Northeast 191 220 7,100  Climbing Indianapolis Center
07:57PM 40.3431 -83.2469 44° Northeast 193 222 7,000 -240 Descending Indianapolis Center
07:58PM 40.3619 -83.2222 45° Northeast 193 222 6,900 180 Descending Indianapolis Center
07:58PM 40.3797 -83.1972 47° Northeast 190 219 7,200  Climbing Indianapolis Center
07:59PM 40.3992 -83.1719 45° Northeast 192 221 6,900 -300 Descending Indianapolis Center
07:59PM 40.4175 -83.1464 47° Northeast 192 221 6,900 60 Level Indianapolis Center
08:00PM 40.4553 -83.0972 45° Northeast 191 220 7,000 60 Climbing Indianapolis Center
08:01PM 40.4928 -83.0486 45° Northeast 189 217 7,100  Climbing Indianapolis Center
08:02PM 40.5347 -82.9867 48° Northeast 190 219 7,100  Level Indianapolis Center
08:03PM 40.5728 -82.9372 45° Northeast 191 220 7,100 -60 Level Indianapolis Center
08:04PM 40.6097 -82.8878 45° Northeast 190 219 7,000  Descending Indianapolis Center
08:05PM 40.6461 -82.8400 45° Northeast 186 214 7,100  Climbing Indianapolis Center
08:07PM 40.6817 -82.7953 44° Northeast 180 207 7,100  Level Indianapolis Center
08:08PM 40.7164 -82.7481 46° Northeast 177 204 7,100 -60 Level Indianapolis Center
08:09PM 40.7508 -82.6994 47° Northeast 179 206 7,000 -180 Descending Indianapolis Center
08:10PM 40.7858 -82.6511 46° Northeast 179 206 6,800 -240 Descending Indianapolis Center